Terminal Aerodrome Forecast
Issued by NWS Louisville, KY

Home | Current Version | Previous Version | Text Only | Print | Product List | Glossary On
Versions: 1 2 3 4 5 6 7 8 9 10 11 12 13 14 15 16 17 18
000
FTUS43 KLMK 062300
TAFBWG
TAF
KBWG 062328Z 0700/0724 19006KT P6SM FEW050
     FM071100 20005KT 6SM BR VCSH SCT035 SCT080
     FM071300 21011KT P6SM VCSH SCT030 SCT200
     FM071700 23014G20KT P6SM SCT040 SCT200=

USA.gov is the U.S. government's official web portal to all federal, state and local government web resources and services.